createdAt,value
2022-09-23T00:00:18.868Z,0.00
2022-09-23T00:01:18.986Z,0.00
2022-09-23T00:02:18.939Z,0.00
2022-09-23T00:03:19.690Z,0.00
2022-09-23T00:04:18.803Z,0.00
2022-09-23T00:05:19.788Z,0.00
2022-09-23T00:06:18.785Z,0.00
2022-09-23T00:07:18.808Z,0.00
2022-09-23T00:08:18.772Z,0.00
2022-09-23T00:09:18.746Z,0.00
2022-09-23T00:10:18.731Z,0.00
2022-09-23T00:11:18.725Z,0.00
2022-09-23T00:12:18.713Z,0.00
2022-09-23T00:13:18.707Z,0.00
2022-09-23T00:14:18.717Z,0.00
2022-09-23T00:15:18.687Z,0.00
2022-09-23T00:16:18.735Z,0.00
2022-09-23T00:17:18.657Z,0.00
2022-09-23T00:18:18.653Z,0.00
2022-09-23T00:19:18.644Z,0.00
2022-09-23T00:20:18.663Z,0.00
2022-09-23T00:21:18.625Z,0.00
2022-09-23T00:22:18.613Z,0.00
2022-09-23T00:23:18.610Z,0.00
2022-09-23T00:24:18.616Z,0.00
2022-09-23T00:25:18.585Z,0.00
2022-09-23T00:26:18.589Z,0.00
2022-09-23T00:27:18.550Z,0.00
2022-09-23T00:28:18.540Z,0.00
2022-09-23T00:29:18.527Z,0.00
2022-09-23T00:30:18.552Z,0.00
2022-09-23T00:31:18.581Z,0.00
2022-09-23T00:32:18.500Z,0.00
2022-09-23T00:33:18.481Z,0.00
2022-09-23T00:34:18.481Z,0.00
2022-09-23T00:35:18.462Z,0.00
2022-09-23T00:36:18.471Z,0.00
2022-09-23T00:37:19.124Z,0.00
2022-09-23T00:38:18.425Z,0.00
2022-09-23T00:39:18.423Z,0.00
2022-09-23T00:40:18.462Z,0.00
2022-09-23T00:41:18.453Z,0.00
2022-09-23T00:42:18.392Z,0.00
2022-09-23T00:43:18.373Z,0.00
2022-09-23T00:44:18.367Z,0.00
2022-09-23T00:45:18.364Z,0.00
2022-09-23T00:46:18.397Z,0.00
2022-09-23T00:47:18.357Z,0.00
2022-09-23T00:48:18.324Z,0.00
2022-09-23T00:49:18.316Z,0.00
2022-09-23T00:50:18.301Z,0.00
2022-09-23T00:51:18.307Z,0.00
2022-09-23T00:52:18.274Z,0.00
2022-09-23T00:53:18.318Z,0.00
2022-09-23T00:54:18.273Z,0.00
2022-09-23T00:55:18.250Z,0.00
2022-09-23T00:56:18.249Z,0.00
2022-09-23T00:57:18.231Z,0.00
2022-09-23T00:58:18.229Z,0.00
2022-09-23T00:59:18.235Z,0.00
2022-09-23T01:00:18.192Z,0.00
2022-09-23T01:01:18.240Z,0.00
2022-09-23T01:02:18.239Z,0.00
2022-09-23T01:03:18.277Z,0.00
2022-09-23T01:04:18.161Z,0.00
2022-09-23T01:05:18.139Z,0.00
2022-09-23T01:06:18.130Z,0.00
2022-09-23T01:07:18.116Z,0.00
2022-09-23T01:08:18.108Z,0.00
2022-09-23T01:09:18.106Z,0.00
2022-09-23T05:01:13.609Z,6.00
2022-09-23T05:02:14.595Z,6.00
2022-09-23T05:03:14.542Z,7.00
2022-09-23T05:04:14.553Z,8.00
2022-09-23T05:05:14.516Z,9.00
2022-09-23T05:06:14.518Z,11.00
2022-09-23T05:07:14.506Z,12.00
2022-09-23T05:08:14.494Z,14.00
2022-09-23T05:09:14.557Z,15.00
2022-09-23T05:10:14.477Z,21.00
2022-09-23T05:11:14.446Z,27.00
2022-09-23T05:12:14.458Z,33.00
2022-09-23T05:13:14.431Z,35.00
2022-09-23T05:14:14.418Z,33.00
2022-09-23T05:15:14.419Z,40.00
2022-09-23T05:16:14.451Z,41.00
2022-09-23T05:17:14.394Z,42.00
2022-09-23T05:18:17.853Z,47.00
2022-09-23T05:19:14.369Z,59.00
2022-09-23T05:20:14.418Z,62.00
2022-09-23T05:21:14.369Z,68.00
2022-09-23T05:22:14.346Z,76.00
2022-09-23T05:23:14.339Z,86.00
2022-09-23T05:24:14.356Z,91.00
2022-09-23T05:25:14.316Z,97.00
2022-09-23T05:26:14.297Z,103.00
2022-09-23T05:27:14.286Z,112.00
2022-09-23T05:28:14.289Z,120.00
2022-09-23T05:29:14.269Z,124.00
2022-09-23T05:30:14.261Z,131.00
2022-09-23T05:31:19.320Z,139.00
2022-09-23T05:32:14.235Z,149.00
2022-09-23T05:33:14.243Z,159.00
2022-09-23T05:34:14.219Z,170.00
2022-09-23T05:35:14.202Z,179.00
2022-09-23T05:36:14.200Z,187.00
2022-09-23T05:37:14.198Z,193.00
2022-09-23T05:38:14.171Z,212.00
2022-09-23T05:39:14.163Z,222.00
2022-09-23T05:40:14.259Z,228.00
2022-09-23T05:41:14.140Z,238.00
2022-09-23T05:42:14.143Z,251.00
2022-09-23T05:43:14.122Z,262.00
2022-09-23T05:44:14.113Z,269.00
2022-09-23T05:45:14.123Z,283.00
2022-09-23T05:46:14.165Z,289.00
2022-09-23T05:47:14.086Z,293.00
2022-09-23T05:48:14.062Z,298.00
2022-09-23T05:49:14.062Z,306.00
2022-09-23T05:50:14.047Z,313.00
2022-09-23T05:51:14.037Z,325.00
2022-09-23T05:52:14.029Z,331.00
2022-09-23T05:53:14.011Z,340.00
2022-09-23T05:54:13.993Z,354.00
2022-09-23T05:55:14.002Z,360.00
2022-09-23T05:56:13.992Z,370.00
2022-09-23T05:57:13.966Z,375.00
2022-09-23T05:58:13.958Z,389.00
2022-09-23T05:59:13.950Z,396.00
2022-09-23T06:00:13.938Z,409.00
2022-09-23T06:01:13.957Z,422.00
2022-09-23T06:02:13.989Z,429.00
2022-09-23T06:03:13.923Z,438.00
2022-09-23T06:04:13.908Z,444.00
2022-09-23T06:05:13.888Z,456.00
2022-09-23T06:06:13.883Z,465.00
2022-09-23T06:07:13.882Z,473.00
2022-09-23T06:08:13.859Z,489.00
2022-09-23T06:09:13.841Z,493.00
2022-09-23T06:10:13.842Z,497.00
2022-09-23T06:11:13.821Z,506.00
2022-09-23T06:12:13.858Z,517.00
2022-09-23T06:13:13.791Z,513.00
2022-09-23T06:14:13.794Z,515.00
2022-09-23T06:15:13.779Z,513.00
2022-09-23T06:16:13.920Z,521.00
2022-09-23T06:17:13.868Z,527.00
2022-09-23T06:18:14.814Z,532.00
2022-09-23T06:19:13.729Z,531.00
2022-09-23T06:20:13.734Z,523.00
2022-09-23T06:21:13.965Z,525.00
2022-09-23T06:22:13.767Z,527.00
2022-09-23T06:23:14.092Z,519.00
2022-09-23T06:24:18.803Z,530.00
2022-09-23T06:25:13.731Z,530.00
2022-09-23T06:26:13.683Z,534.00
2022-09-23T06:27:13.651Z,538.00
2022-09-23T06:28:13.633Z,545.00
2022-09-23T06:29:13.639Z,548.00
2022-09-23T06:30:13.619Z,552.00
2022-09-23T06:31:14.122Z,554.00
2022-09-23T06:32:13.623Z,557.00
2022-09-23T06:33:13.638Z,568.00
2022-09-23T06:34:14.354Z,572.00
2022-09-23T06:35:24.812Z,580.00
2022-09-23T06:36:17.280Z,583.00
2022-09-23T06:37:19.770Z,591.00
2022-09-23T06:38:13.557Z,598.00
2022-09-23T06:39:13.530Z,607.00
2022-09-23T06:40:13.597Z,612.00
2022-09-23T06:41:13.498Z,630.00
2022-09-23T06:42:13.525Z,648.00
2022-09-23T06:43:13.568Z,664.00
2022-09-23T06:44:13.495Z,678.00
2022-09-23T06:45:13.555Z,692.00
2022-09-23T06:46:13.504Z,711.00
2022-09-23T06:47:13.447Z,720.00
2022-09-23T06:48:13.427Z,739.00
2022-09-23T06:49:13.573Z,748.00
2022-09-23T06:50:13.406Z,750.00
2022-09-23T06:51:13.437Z,756.00
2022-09-23T06:52:13.412Z,757.00
2022-09-23T06:53:13.389Z,765.00
2022-09-23T06:54:13.362Z,771.00
2022-09-23T06:55:13.371Z,787.00
2022-09-23T06:56:13.367Z,798.00
2022-09-23T06:57:13.359Z,809.00
2022-09-23T06:58:13.355Z,827.00
2022-09-23T06:59:13.325Z,839.00
2022-09-23T07:00:13.300Z,846.00
2022-09-23T07:01:13.364Z,860.00
2022-09-23T07:02:13.475Z,871.00
2022-09-23T07:03:13.258Z,876.00
2022-09-23T07:04:13.269Z,876.00
2022-09-23T07:05:13.239Z,886.00
2022-09-23T07:06:13.249Z,883.00
2022-09-23T07:07:13.242Z,881.00
2022-09-23T07:08:13.219Z,874.00
2022-09-23T07:09:13.205Z,864.00
2022-09-23T07:10:13.204Z,851.00
2022-09-23T07:11:13.386Z,841.00
2022-09-23T07:12:13.190Z,827.00
2022-09-23T07:13:16.291Z,823.00
2022-09-23T07:14:13.146Z,819.00
2022-09-23T07:15:13.130Z,817.00
2022-09-23T07:16:13.196Z,809.00
2022-09-23T07:17:13.123Z,810.00
2022-09-23T07:18:13.101Z,796.00
2022-09-23T07:19:13.117Z,789.00
2022-09-23T07:20:13.084Z,779.00
2022-09-23T07:21:13.098Z,769.00
2022-09-23T07:22:13.070Z,755.00
2022-09-23T07:23:13.057Z,744.00
2022-09-23T07:24:13.058Z,737.00
2022-09-23T07:25:13.029Z,719.00
2022-09-23T07:26:13.022Z,708.00
2022-09-23T07:27:13.013Z,697.00
2022-09-23T07:28:13.004Z,682.00
2022-09-23T07:29:12.994Z,669.00
2022-09-23T07:30:21.764Z,656.00
2022-09-23T07:31:13.336Z,644.00
2022-09-23T07:32:14.432Z,624.00
2022-09-23T07:33:29.485Z,615.00
2022-09-23T07:34:12.942Z,607.00
2022-09-23T07:35:12.937Z,607.00
2022-09-23T07:36:12.955Z,611.00
2022-09-23T07:37:12.908Z,610.00
2022-09-23T07:38:12.909Z,609.00
2022-09-23T07:39:12.874Z,605.00
2022-09-23T07:40:12.920Z,606.00
2022-09-23T07:41:12.863Z,612.00
2022-09-23T07:42:12.869Z,619.00
2022-09-23T07:43:12.842Z,623.00
2022-09-23T07:44:12.849Z,629.00
2022-09-23T07:45:12.820Z,638.00
2022-09-23T07:46:13.008Z,643.00
2022-09-23T07:47:12.806Z,650.00
2022-09-23T07:48:12.814Z,663.00
2022-09-23T07:49:12.774Z,667.00
2022-09-23T07:50:12.774Z,673.00
2022-09-23T07:51:12.757Z,680.00
2022-09-23T07:52:12.741Z,687.00
2022-09-23T07:53:12.733Z,699.00
2022-09-23T07:54:12.737Z,708.00
2022-09-23T07:55:12.736Z,718.00
2022-09-23T07:56:12.712Z,724.00
2022-09-23T07:57:12.690Z,733.00
2022-09-23T07:58:12.675Z,739.00
2022-09-23T07:59:12.703Z,747.00
2022-09-23T08:00:12.651Z,744.00
2022-09-23T08:01:12.690Z,739.00
2022-09-23T08:02:12.642Z,740.00
2022-09-23T08:03:12.701Z,740.00
2022-09-23T08:04:12.611Z,736.00
2022-09-23T08:05:12.613Z,726.00
2022-09-23T08:06:12.623Z,718.00
2022-09-23T08:07:12.607Z,718.00
2022-09-23T08:08:12.572Z,720.00
2022-09-23T08:09:12.560Z,715.00
2022-09-23T08:10:12.569Z,713.00
2022-09-23T08:11:12.539Z,714.00
2022-09-23T08:12:15.921Z,721.00
2022-09-23T08:13:12.541Z,731.00
2022-09-23T08:14:12.507Z,732.00
2022-09-23T08:15:12.494Z,727.00
2022-09-23T08:16:12.614Z,718.00
2022-09-23T08:17:12.473Z,713.00
2022-09-23T08:18:12.462Z,713.00
2022-09-23T08:19:12.455Z,713.00
2022-09-23T08:20:12.444Z,711.00
2022-09-23T08:21:12.470Z,707.00
2022-09-23T08:22:12.426Z,698.00
2022-09-23T08:23:12.417Z,690.00
2022-09-23T08:24:12.406Z,683.00
2022-09-23T08:25:12.398Z,679.00
2022-09-23T08:26:20.351Z,669.00
2022-09-23T08:27:12.391Z,663.00
2022-09-23T08:28:12.357Z,649.00
2022-09-23T08:29:12.351Z,644.00
2022-09-23T08:30:12.356Z,640.00
2022-09-23T08:31:12.446Z,636.00
2022-09-23T08:32:12.319Z,638.00
2022-09-23T08:33:12.318Z,645.00
2022-09-23T08:34:12.288Z,650.00
2022-09-23T08:35:12.286Z,660.00
2022-09-23T08:36:12.311Z,671.00
2022-09-23T08:37:12.261Z,677.00
2022-09-23T08:38:12.255Z,682.00
2022-09-23T08:39:12.245Z,684.00
2022-09-23T08:40:12.286Z,687.00
2022-09-23T08:41:12.270Z,694.00
2022-09-23T08:42:12.205Z,695.00
2022-09-23T08:43:12.199Z,700.00
2022-09-23T08:44:12.204Z,704.00
2022-09-23T08:45:12.196Z,708.00
2022-09-23T08:46:12.223Z,721.00
2022-09-23T08:47:12.169Z,722.00
2022-09-23T08:48:13.083Z,730.00
2022-09-23T08:49:12.136Z,746.00
2022-09-23T08:50:12.119Z,758.00
2022-09-23T08:51:12.217Z,771.00
2022-09-23T08:52:12.152Z,795.00
2022-09-23T08:53:12.095Z,816.00
2022-09-23T08:54:12.090Z,838.00
2022-09-23T08:55:12.074Z,850.00
2022-09-23T08:56:12.060Z,861.00
2022-09-23T08:57:12.058Z,875.00
2022-09-23T08:58:24.844Z,898.00
2022-09-23T08:59:12.033Z,929.00
2022-09-23T09:00:12.022Z,962.00
2022-09-23T09:01:12.046Z,997.00
2022-09-23T09:02:12.063Z,1037.00
2022-09-23T09:03:11.996Z,1070.00
2022-09-23T09:04:12.773Z,1093.00
2022-09-23T09:05:11.965Z,1126.00
2022-09-23T09:06:11.960Z,1146.00
2022-09-23T09:07:35.353Z,1168.00
2022-09-23T09:08:11.936Z,1184.00
2022-09-23T09:09:11.924Z,1216.00
2022-09-23T09:10:11.949Z,1256.00
2022-09-23T09:11:11.901Z,1254.00
2022-09-23T09:12:12.014Z,1266.00
2022-09-23T09:13:11.887Z,1263.00
2022-09-23T09:14:11.859Z,1279.00
2022-09-23T09:15:11.857Z,1272.00
2022-09-23T09:16:11.936Z,1259.00
2022-09-23T09:17:11.840Z,1247.00
2022-09-23T09:18:11.819Z,1243.00
2022-09-23T09:19:11.822Z,1237.00
2022-09-23T09:20:11.805Z,1250.00
2022-09-23T09:21:11.796Z,1238.00
2022-09-23T09:22:11.838Z,1214.00
2022-09-23T09:23:11.782Z,1185.00
2022-09-23T09:24:11.758Z,1163.00
2022-09-23T09:25:14.366Z,1148.00
2022-09-23T09:26:11.734Z,1132.00
2022-09-23T09:27:11.746Z,1123.00
2022-09-23T09:28:11.748Z,1117.00
2022-09-23T09:29:33.688Z,1107.00
2022-09-23T09:30:11.702Z,1096.00
2022-09-23T09:31:11.719Z,1084.00
2022-09-23T09:32:11.679Z,1067.00
2022-09-23T09:33:11.685Z,1047.00
2022-09-23T09:34:11.671Z,1029.00
2022-09-23T09:35:11.655Z,1008.00
2022-09-23T09:36:11.645Z,988.00
2022-09-23T09:37:11.622Z,967.00
2022-09-23T09:38:11.647Z,962.00
2022-09-23T09:39:11.617Z,962.00
2022-09-23T09:40:11.727Z,966.00
2022-09-23T09:41:11.598Z,967.00
2022-09-23T09:42:11.573Z,973.00
2022-09-23T09:43:11.579Z,965.00
2022-09-23T09:44:11.541Z,947.00
2022-09-23T09:45:11.574Z,938.00
2022-09-23T09:46:11.572Z,930.00
2022-09-23T09:47:11.537Z,896.00
2022-09-23T09:48:11.510Z,866.00
2022-09-23T09:49:11.551Z,850.00
2022-09-23T09:50:11.518Z,852.00
2022-09-23T09:51:11.500Z,869.00
2022-09-23T09:52:11.469Z,875.00
2022-09-23T09:53:11.392Z,869.00
2022-09-23T09:54:11.427Z,872.00
2022-09-23T09:55:11.424Z,874.00
2022-09-23T09:56:11.367Z,876.00
2022-09-23T09:57:11.352Z,874.00
2022-09-23T09:58:11.344Z,863.00
2022-09-23T09:59:11.335Z,851.00
2022-09-23T10:00:11.332Z,845.00
2022-09-23T10:01:11.357Z,846.00
2022-09-23T10:02:11.297Z,848.00
2022-09-23T10:03:11.281Z,845.00
2022-09-23T10:04:11.347Z,843.00
2022-09-23T10:05:11.294Z,839.00
2022-09-23T10:06:11.294Z,838.00
2022-09-23T10:07:11.236Z,839.00
2022-09-23T10:08:11.242Z,834.00
2022-09-23T10:09:11.233Z,846.00
2022-09-23T10:10:28.873Z,851.00
2022-09-23T10:11:11.229Z,829.00
2022-09-23T10:12:11.248Z,828.00
2022-09-23T10:13:11.203Z,830.00
2022-09-23T10:14:11.267Z,833.00
2022-09-23T10:15:11.159Z,839.00
2022-09-23T10:16:11.166Z,845.00
2022-09-23T10:17:11.152Z,850.00
2022-09-23T10:18:11.126Z,862.00
2022-09-23T10:19:11.115Z,887.00
2022-09-23T10:20:11.125Z,916.00
2022-09-23T10:21:11.102Z,934.00
2022-09-23T10:22:11.099Z,960.00
2022-09-23T10:23:11.065Z,982.00
2022-09-23T10:24:11.057Z,998.00
2022-09-23T10:25:11.062Z,1012.00
2022-09-23T10:26:11.034Z,1029.00
2022-09-23T10:27:11.031Z,1052.00
2022-09-23T10:28:11.017Z,1066.00
2022-09-23T10:29:11.029Z,1073.00
2022-09-23T10:30:10.993Z,1077.00
2022-09-23T10:31:11.028Z,1098.00
2022-09-23T10:32:10.974Z,1108.00
2022-09-23T10:33:10.975Z,1103.00
2022-09-23T10:34:10.983Z,1107.00
2022-09-23T10:35:10.946Z,1124.00
2022-09-23T10:36:10.933Z,1144.00
2022-09-23T10:37:10.923Z,1160.00
2022-09-23T10:38:10.905Z,1183.00
2022-09-23T10:39:10.937Z,1186.00
2022-09-23T10:40:10.969Z,1204.00
2022-09-23T10:41:10.877Z,1242.00
2022-09-23T10:42:10.880Z,1270.00
2022-09-23T10:43:10.856Z,1286.00
2022-09-23T10:44:10.844Z,1338.00
2022-09-23T10:45:10.850Z,1357.00
2022-09-23T10:46:10.892Z,1465.00
2022-09-23T10:47:10.823Z,1398.00
2022-09-23T10:48:10.810Z,1439.00
2022-09-23T10:49:10.801Z,1447.00
2022-09-23T10:50:10.808Z,1432.00
2022-09-23T10:51:10.792Z,1384.00
2022-09-23T10:52:10.774Z,1349.00
2022-09-23T10:53:10.759Z,1340.00
2022-09-23T10:54:10.809Z,1342.00
2022-09-23T10:55:10.743Z,1357.00
2022-09-23T10:56:10.756Z,1336.00
2022-09-23T10:57:10.745Z,1336.00
2022-09-23T10:58:10.705Z,1294.00
2022-09-23T10:59:10.722Z,1428.00
2022-09-23T11:00:10.709Z,1380.00
2022-09-23T11:01:10.742Z,1422.00
2022-09-23T11:02:10.666Z,1463.00
2022-09-23T11:03:10.691Z,1478.00
2022-09-23T11:04:11.304Z,1464.00
2022-09-23T11:05:10.652Z,1460.00
2022-09-23T11:06:10.618Z,1492.00
2022-09-23T11:07:10.620Z,1501.00
2022-09-23T11:08:10.603Z,1559.00
2022-09-23T11:09:10.599Z,1562.00
2022-09-23T11:10:23.207Z,1586.00
2022-09-23T11:11:10.582Z,1598.00
2022-09-23T11:12:10.572Z,1597.00
2022-09-23T11:13:10.554Z,1602.00
2022-09-23T11:14:10.595Z,1612.00
2022-09-23T11:15:10.561Z,1649.00
2022-09-23T11:16:10.600Z,1619.00
2022-09-23T11:17:10.613Z,1641.00
2022-09-23T11:18:10.498Z,1588.00
2022-09-23T11:19:10.502Z,1658.00
2022-09-23T11:20:10.487Z,1685.00
2022-09-23T11:21:10.510Z,1662.00
2022-09-23T11:22:10.486Z,1784.00
2022-09-23T11:23:10.449Z,1598.00
2022-09-23T11:24:10.481Z,1703.00
2022-09-23T11:25:10.432Z,1682.00
2022-09-23T11:26:10.418Z,1802.00
2022-09-23T11:27:10.449Z,1908.00
2022-09-23T11:28:10.418Z,1912.00
2022-09-23T11:29:10.419Z,1905.00
2022-09-23T11:30:10.400Z,1935.00
2022-09-23T11:31:10.505Z,2019.00
2022-09-23T11:32:10.531Z,1969.00
2022-09-23T11:33:10.355Z,1993.00
2022-09-23T11:34:10.417Z,2061.00
2022-09-23T11:35:10.332Z,2070.00
2022-09-23T11:36:10.309Z,1955.00
2022-09-23T11:37:10.339Z,2076.00
2022-09-23T11:38:10.300Z,2118.00
2022-09-23T11:39:10.292Z,2104.00
2022-09-23T11:40:10.306Z,2050.00
2022-09-23T11:41:10.265Z,2099.00
2022-09-23T11:42:10.243Z,2098.00
2022-09-23T11:43:10.279Z,2164.00
2022-09-23T11:44:10.317Z,2199.00
2022-09-23T11:45:10.222Z,2250.00
2022-09-23T11:46:10.355Z,2396.00
2022-09-23T11:47:10.220Z,2502.00
2022-09-23T11:48:10.212Z,2510.00
2022-09-23T11:49:10.210Z,2522.00
2022-09-23T11:50:10.164Z,2535.00
2022-09-23T11:51:10.163Z,2525.00
2022-09-23T11:52:10.146Z,2705.00
2022-09-23T11:53:10.155Z,2769.00
2022-09-23T11:54:10.230Z,2793.00
2022-09-23T11:55:19.958Z,2840.00
2022-09-23T11:56:10.107Z,2892.00
2022-09-23T11:57:10.094Z,2841.00
2022-09-23T11:58:21.082Z,2946.00
2022-09-23T11:59:10.364Z,2961.00
2022-09-23T12:00:10.059Z,2984.00
2022-09-23T12:01:10.053Z,3012.00
2022-09-23T12:02:19.279Z,2963.00
2022-09-23T12:03:10.243Z,2938.00
2022-09-23T12:04:19.330Z,2940.00
2022-09-23T12:05:10.143Z,2895.00
2022-09-23T12:06:10.035Z,2839.00
2022-09-23T12:07:10.001Z,2828.00
2022-09-23T12:08:09.983Z,2788.00
2022-09-23T12:09:09.992Z,2854.00
2022-09-23T12:10:10.018Z,2779.00
2022-09-23T12:11:09.959Z,2666.00
2022-09-23T12:12:09.938Z,2650.00
2022-09-23T12:13:09.939Z,2626.00
2022-09-23T12:14:09.989Z,2508.00
2022-09-23T12:15:09.941Z,2501.00
2022-09-23T12:16:09.892Z,2397.00
2022-09-23T12:17:09.899Z,2444.00
2022-09-23T12:18:09.947Z,2341.00
2022-09-23T12:19:09.866Z,2343.00
2022-09-23T12:20:09.907Z,2327.00
2022-09-23T12:21:18.315Z,2346.00
2022-09-23T12:22:09.837Z,2388.00
2022-09-23T12:23:09.814Z,2399.00
2022-09-23T12:24:09.835Z,2313.00
2022-09-23T12:25:09.863Z,2308.00
2022-09-23T12:26:09.814Z,2286.00
2022-09-23T12:27:09.831Z,2120.00
2022-09-23T12:28:09.796Z,1954.00
2022-09-23T12:29:09.825Z,2201.00
2022-09-23T12:30:09.789Z,2053.00
2022-09-23T12:31:09.813Z,2070.00
2022-09-23T12:32:09.773Z,2108.00
2022-09-23T12:33:09.716Z,2235.00
2022-09-23T12:34:09.809Z,2274.00
2022-09-23T12:35:09.693Z,2510.00
2022-09-23T12:36:09.679Z,2636.00
2022-09-23T12:37:09.679Z,2780.00
2022-09-23T12:38:09.748Z,2584.00
2022-09-23T12:39:09.802Z,2600.00
2022-09-23T12:40:09.840Z,2587.00
2022-09-23T12:41:09.662Z,2708.00
2022-09-23T12:42:09.699Z,2845.00
2022-09-23T12:43:09.629Z,2801.00
2022-09-23T12:44:09.669Z,2640.00
2022-09-23T12:45:09.580Z,2829.00
2022-09-23T12:46:09.623Z,2861.00
2022-09-23T12:47:09.558Z,2731.00
2022-09-23T12:48:09.563Z,2758.00
2022-09-23T12:49:09.539Z,2782.00
2022-09-23T12:50:13.204Z,2808.00
2022-09-23T12:51:09.527Z,2838.00
2022-09-23T12:52:09.509Z,2846.00
2022-09-23T12:53:09.494Z,2819.00
2022-09-23T12:54:09.552Z,2808.00
2022-09-23T12:55:09.476Z,2984.00
2022-09-23T12:56:09.485Z,2937.00
2022-09-23T12:57:09.459Z,2784.00
2022-09-23T12:58:09.448Z,2744.00
2022-09-23T12:59:09.432Z,2653.00
2022-09-23T13:00:09.439Z,2716.00
2022-09-23T13:01:09.547Z,2719.00
2022-09-23T13:02:09.566Z,2274.00
2022-09-23T13:03:09.399Z,2523.00
2022-09-23T13:04:09.384Z,2369.00
2022-09-23T13:05:09.373Z,2429.00
2022-09-23T13:06:09.367Z,2411.00
2022-09-23T13:07:09.367Z,2438.00
2022-09-23T13:08:09.348Z,2438.00
2022-09-23T13:09:09.460Z,2514.00
2022-09-23T13:10:09.323Z,2541.00
2022-09-23T13:11:09.313Z,2529.00
2022-09-23T13:12:09.775Z,2540.00
2022-09-23T13:13:09.287Z,2552.00
2022-09-23T13:14:09.361Z,2533.00
2022-09-23T13:15:09.264Z,2377.00
2022-09-23T13:16:09.314Z,2470.00
2022-09-23T13:17:09.248Z,2426.00
2022-09-23T13:18:09.250Z,2410.00
2022-09-23T13:19:09.220Z,2379.00
2022-09-23T13:20:09.284Z,2467.00
2022-09-23T13:21:09.201Z,2400.00
2022-09-23T13:22:09.436Z,2396.00
2022-09-23T13:23:09.199Z,2390.00
2022-09-23T13:24:09.203Z,2316.00
2022-09-23T13:25:09.157Z,2247.00
2022-09-23T13:26:09.156Z,2053.00
2022-09-23T13:27:09.134Z,2076.00
2022-09-23T13:28:09.135Z,1976.00
2022-09-23T13:29:09.624Z,2054.00
2022-09-23T13:30:09.188Z,2022.00
2022-09-23T13:31:09.211Z,2043.00
2022-09-23T13:32:09.202Z,1812.00
2022-09-23T13:33:09.075Z,2116.00
2022-09-23T13:34:09.067Z,2392.00
2022-09-23T13:35:09.067Z,2604.00
2022-09-23T13:36:09.046Z,2536.00
2022-09-23T13:37:09.031Z,2529.00
2022-09-23T13:38:09.031Z,2459.00
2022-09-23T13:39:09.020Z,2267.00
2022-09-23T13:40:09.241Z,2206.00
2022-09-23T13:41:08.985Z,2442.00
2022-09-23T13:42:08.992Z,2665.00
2022-09-23T13:43:08.978Z,2584.00
2022-09-23T13:44:09.086Z,2434.00
2022-09-23T13:45:09.109Z,2604.00
2022-09-23T13:46:09.061Z,2447.00
2022-09-23T13:47:08.927Z,2554.00
2022-09-23T13:48:08.928Z,2437.00
2022-09-23T13:49:08.913Z,2507.00
2022-09-23T13:50:08.923Z,2215.00
2022-09-23T13:51:08.913Z,2453.00
2022-09-23T13:52:08.875Z,2214.00
2022-09-23T13:53:08.865Z,2484.00
2022-09-23T13:54:08.895Z,2297.00
2022-09-23T13:55:08.861Z,2258.00
2022-09-23T13:56:08.840Z,2435.00
2022-09-23T13:57:08.823Z,2464.00
2022-09-23T13:58:08.823Z,2569.00
2022-09-23T13:59:08.804Z,2463.00
2022-09-23T14:00:08.800Z,2057.00
2022-09-23T14:01:08.848Z,2074.00
2022-09-23T14:02:08.825Z,2381.00
2022-09-23T14:03:08.759Z,2719.00
2022-09-23T14:04:08.753Z,2444.00
2022-09-23T14:05:08.735Z,1737.00
2022-09-23T14:06:08.744Z,2013.00
2022-09-23T14:07:08.740Z,2530.00
2022-09-23T14:08:08.717Z,2522.00
2022-09-23T14:09:08.693Z,2655.00
2022-09-23T14:10:08.688Z,2728.00
2022-09-23T14:11:08.697Z,2421.00
2022-09-23T14:12:08.674Z,1527.00
2022-09-23T14:13:08.716Z,2152.00
2022-09-23T14:14:08.715Z,1537.00
2022-09-23T14:15:08.629Z,1737.00
2022-09-23T14:16:08.687Z,1669.00
2022-09-23T14:17:08.630Z,1737.00
2022-09-23T14:18:08.612Z,2110.00
2022-09-23T14:19:08.619Z,2183.00
2022-09-23T14:20:08.607Z,2008.00
2022-09-23T14:21:08.597Z,1563.00
2022-09-23T14:22:12.291Z,1844.00
2022-09-23T14:23:08.560Z,1761.00
2022-09-23T14:24:08.551Z,1670.00
2022-09-23T14:25:08.564Z,1671.00
2022-09-23T14:26:08.534Z,1673.00
2022-09-23T14:27:08.512Z,1735.00
2022-09-23T14:28:08.511Z,1806.00
2022-09-23T14:29:08.492Z,1779.00
2022-09-23T14:30:08.483Z,1836.00
2022-09-23T14:31:08.533Z,1857.00
2022-09-23T14:32:08.458Z,1758.00
2022-09-23T14:33:08.812Z,1727.00
2022-09-23T14:34:08.460Z,1962.00
2022-09-23T14:35:08.422Z,2093.00
2022-09-23T14:36:08.420Z,2275.00
2022-09-23T14:37:08.406Z,2322.00
2022-09-23T14:38:08.418Z,2749.00
2022-09-23T14:39:08.394Z,2718.00
2022-09-23T14:40:08.540Z,2949.00
2022-09-23T14:41:08.363Z,2877.00
2022-09-23T14:42:08.355Z,2828.00
2022-09-23T14:43:08.352Z,2924.00
2022-09-23T14:44:08.389Z,3159.00
2022-09-23T14:45:08.312Z,2666.00
2022-09-23T14:46:08.450Z,2757.00
2022-09-23T14:47:12.201Z,2785.00
2022-09-23T14:48:08.325Z,2896.00
2022-09-23T14:49:08.340Z,2604.00
2022-09-23T14:50:08.266Z,2568.00
2022-09-23T14:51:10.914Z,2324.00
2022-09-23T14:52:08.291Z,2194.00
2022-09-23T14:53:08.271Z,2110.00
2022-09-23T14:54:08.237Z,2222.00
2022-09-23T14:55:08.236Z,1930.00
2022-09-23T14:56:08.239Z,1909.00
2022-09-23T14:57:08.191Z,2046.00
2022-09-23T14:58:08.195Z,2398.00
2022-09-23T14:59:08.249Z,1878.00
2022-09-23T15:00:08.168Z,1886.00
2022-09-23T15:01:08.244Z,1698.00
2022-09-23T15:02:08.149Z,1637.00
2022-09-23T15:03:08.157Z,1832.00
2022-09-23T15:04:08.119Z,1678.00
2022-09-23T15:05:08.150Z,1928.00
2022-09-23T15:06:08.938Z,2412.00
2022-09-23T15:07:08.095Z,2549.00
2022-09-23T15:08:08.073Z,2244.00
2022-09-23T15:09:08.124Z,2187.00
2022-09-23T15:10:08.080Z,2286.00
2022-09-23T15:11:08.546Z,2009.00
2022-09-23T15:12:08.042Z,1900.00
2022-09-23T15:13:08.096Z,1822.00
2022-09-23T15:14:36.055Z,1770.00
2022-09-23T15:15:08.017Z,1673.00
2022-09-23T15:16:08.081Z,1622.00
2022-09-23T15:17:08.000Z,1757.00
2022-09-23T15:18:07.993Z,1707.00
2022-09-23T15:19:07.967Z,1579.00
2022-09-23T15:20:07.953Z,1515.00
2022-09-23T15:21:07.950Z,1385.00
2022-09-23T15:22:07.932Z,1357.00
2022-09-23T15:23:07.939Z,1695.00
2022-09-23T15:24:07.956Z,1876.00
2022-09-23T15:25:07.911Z,1371.00
2022-09-23T15:26:07.890Z,1480.00
2022-09-23T15:27:07.877Z,1396.00
2022-09-23T15:28:07.884Z,1412.00
2022-09-23T15:29:07.875Z,1400.00
2022-09-23T15:30:11.268Z,1413.00
2022-09-23T15:31:07.890Z,1373.00
2022-09-23T15:32:07.909Z,1304.00
2022-09-23T15:33:07.815Z,1391.00
2022-09-23T15:34:07.920Z,1506.00
2022-09-23T15:35:07.800Z,1879.00
2022-09-23T15:36:07.799Z,1692.00
2022-09-23T15:37:07.780Z,1527.00
2022-09-23T15:38:07.777Z,1469.00
2022-09-23T15:39:07.764Z,1427.00
2022-09-23T15:40:07.821Z,1429.00
2022-09-23T15:41:07.726Z,1614.00
2022-09-23T15:42:07.813Z,1554.00
2022-09-23T15:43:07.718Z,1438.00
2022-09-23T15:44:07.815Z,1525.00
2022-09-23T15:45:07.689Z,1217.00
2022-09-23T15:46:07.755Z,1307.00
2022-09-23T15:47:07.668Z,1368.00
2022-09-23T15:48:07.687Z,1279.00
2022-09-23T15:49:07.732Z,1140.00
2022-09-23T15:50:07.645Z,1076.00
2022-09-23T15:51:07.620Z,990.00
2022-09-23T15:52:07.617Z,1141.00
2022-09-23T15:53:07.878Z,1465.00
2022-09-23T15:54:07.605Z,1389.00
2022-09-23T15:55:07.594Z,1349.00
2022-09-23T15:56:07.579Z,1150.00
2022-09-23T15:57:07.556Z,1181.00
2022-09-23T15:58:07.561Z,1438.00
2022-09-23T15:59:07.623Z,1657.00
2022-09-23T16:00:07.537Z,1741.00
2022-09-23T16:01:07.612Z,1671.00
2022-09-23T16:02:07.576Z,1888.00
2022-09-23T16:03:07.500Z,1572.00
2022-09-23T16:04:07.495Z,1282.00
2022-09-23T16:05:07.508Z,1256.00
2022-09-23T16:06:07.465Z,1187.00
2022-09-23T16:07:07.466Z,1111.00
2022-09-23T16:08:09.222Z,1109.00
2022-09-23T16:09:07.476Z,1140.00
2022-09-23T16:10:07.466Z,1140.00
2022-09-23T16:11:07.407Z,1136.00
2022-09-23T16:12:07.405Z,1091.00